createdAt,value
2022-12-19T00:00:49.538Z,101429.03
2022-12-19T00:03:36.703Z,101403.75
2022-12-19T00:06:24.425Z,101445.63
2022-12-19T00:09:13.144Z,101449.09
2022-12-19T00:12:00.461Z,101454.31
2022-12-19T00:14:47.489Z,101449.09
2022-12-19T00:17:35.356Z,101448.22
2022-12-19T00:20:24.498Z,101460.44
2022-12-19T00:23:11.500Z,101459.53
2022-12-19T00:25:58.679Z,101470.88
2022-12-19T00:28:47.085Z,101463.91
2022-12-19T00:31:36.599Z,101467.38
2022-12-19T00:34:23.806Z,101449.06
2022-12-19T00:37:10.751Z,101482.22
2022-12-19T00:39:57.729Z,101345.28
2022-12-19T00:42:48.657Z,101484.84
2022-12-19T00:45:38.927Z,101457.78
2022-12-19T00:48:26.034Z,101483.94
2022-12-19T00:51:24.174Z,101490.06
2022-12-19T00:54:12.899Z,101490.91
2022-12-19T00:56:40.162Z,101480.44
2022-12-19T00:59:07.356Z,101483.03
2022-12-19T01:01:37.331Z,101499.59
2022-12-19T01:06:59.793Z,101496.09
2022-12-19T01:09:33.391Z,101498.69
2022-12-19T01:12:20.457Z,101414.91
2022-12-19T01:15:14.728Z,101420.13
2022-12-19T01:18:01.641Z,101492.59
2022-12-19T01:20:48.567Z,101498.69
2022-12-19T01:23:36.538Z,101496.09
2022-12-19T01:26:23.789Z,101499.59
2022-12-19T01:29:10.700Z,101482.09
2022-12-19T01:31:57.616Z,101496.97
2022-12-19T01:34:44.586Z,101495.19
2022-12-19T01:37:31.632Z,101493.47
2022-12-19T01:40:18.554Z,101474.25
2022-12-19T01:43:05.520Z,101500.38
2022-12-19T01:45:55.586Z,101495.19
2022-12-19T01:48:53.711Z,101498.66
2022-12-19T01:51:44.334Z,101492.56
2022-12-19T01:54:44.836Z,101502.13
2022-12-19T01:57:35.821Z,101497.78
2022-12-19T02:00:26.216Z,101518.69
2022-12-19T02:03:19.610Z,101416.66
2022-12-19T02:06:06.622Z,101468.09
2022-12-19T02:08:55.265Z,101510.00
2022-12-19T02:11:42.315Z,101463.75
2022-12-19T02:14:29.451Z,101516.97
2022-12-19T02:17:25.673Z,101530.03
2022-12-19T02:20:50.609Z,101518.72
2022-12-19T02:23:43.419Z,101522.22
2022-12-19T02:27:05.419Z,101514.38
2022-12-19T02:30:40.690Z,101520.47
2022-12-19T02:33:41.332Z,101519.59
2022-12-19T02:36:46.853Z,101469.88
2022-12-19T02:39:42.772Z,101398.34
2022-12-19T02:42:35.235Z,101390.50
2022-12-19T02:45:28.853Z,101521.34
2022-12-19T02:48:19.621Z,101524.81
2022-12-19T02:51:07.767Z,101510.00
2022-12-19T02:53:58.308Z,101440.16
2022-12-19T02:56:57.777Z,101523.94
2022-12-19T02:59:53.689Z,101519.59
2022-12-19T03:02:59.827Z,101518.72
2022-12-19T03:06:09.567Z,101510.03
2022-12-19T03:09:07.469Z,101505.66
2022-12-19T03:11:58.929Z,101513.50
2022-12-19T03:14:47.224Z,101514.38
2022-12-19T03:17:34.712Z,101510.88
2022-12-19T03:20:25.676Z,101510.88
2022-12-19T03:23:12.690Z,101503.00
2022-12-19T03:26:03.317Z,101495.16
2022-12-19T03:29:02.212Z,101518.72
2022-12-19T03:31:53.284Z,101517.88
2022-12-19T03:34:55.113Z,101518.72
2022-12-19T03:37:45.453Z,101514.34
2022-12-19T03:40:39.918Z,101531.78
2022-12-19T03:43:31.254Z,101521.31
2022-12-19T03:46:43.390Z,101521.31
2022-12-19T03:49:30.509Z,101508.25
2022-12-19T03:52:42.050Z,101482.06
2022-12-19T03:55:39.538Z,101512.63
2022-12-19T03:58:31.994Z,101507.41
2022-12-19T04:01:19.565Z,101427.13
2022-12-19T04:04:06.538Z,101505.66
2022-12-19T04:06:54.997Z,101489.94
2022-12-19T04:09:43.618Z,101502.19
2022-12-19T04:12:36.068Z,101497.81
2022-12-19T04:15:24.284Z,101483.81
2022-12-19T04:18:17.428Z,101515.25
2022-12-19T04:21:07.829Z,101518.72
2022-12-19T04:24:02.170Z,101529.19
2022-12-19T04:26:51.420Z,101522.22
2022-12-19T04:29:39.193Z,101522.22
2022-12-19T04:32:28.656Z,101521.31
2022-12-19T04:35:15.524Z,101523.94
2022-12-19T04:38:02.691Z,101516.97
2022-12-19T04:40:49.989Z,101519.59
2022-12-19T04:43:36.894Z,101521.31
2022-12-19T04:46:24.084Z,101418.34
2022-12-19T04:49:10.940Z,101391.25
2022-12-19T04:51:58.255Z,101516.94
2022-12-19T04:54:46.628Z,101508.19
2022-12-19T04:57:33.614Z,101511.66
2022-12-19T05:00:20.533Z,101520.34
2022-12-19T05:03:07.502Z,101523.81
2022-12-19T05:05:54.445Z,101513.34
2022-12-19T05:08:41.898Z,101535.13
2022-12-19T05:11:30.493Z,101534.25
2022-12-19T05:14:19.081Z,101499.31
2022-12-19T05:17:05.963Z,101426.88
2022-12-19T05:19:53.376Z,101528.13
2022-12-19T05:22:40.295Z,101521.19
2022-12-19T05:25:27.843Z,101526.41
2022-12-19T05:28:14.881Z,101529.84
2022-12-19T05:31:02.399Z,101550.81
2022-12-19T05:33:49.538Z,101543.84
2022-12-19T05:36:37.917Z,101555.19
2022-12-19T05:39:25.006Z,101552.56
2022-12-19T05:42:12.611Z,101470.50
2022-12-19T05:44:59.646Z,101558.66
2022-12-19T05:47:46.610Z,101556.91
2022-12-19T05:50:37.666Z,101561.25
2022-12-19T05:53:29.538Z,101569.91
2022-12-19T05:56:27.257Z,101572.53
2022-12-19T05:59:14.333Z,101561.16
2022-12-19T06:02:02.199Z,101575.13
2022-12-19T06:04:50.524Z,101576.84
2022-12-19T06:07:38.103Z,101575.13
2022-12-19T06:10:26.458Z,101586.44
2022-12-19T06:13:13.329Z,101599.50
2022-12-19T06:16:00.261Z,101597.72
2022-12-19T06:18:47.900Z,101597.69
2022-12-19T06:21:47.884Z,101599.47
2022-12-19T06:24:35.651Z,101603.75
2022-12-19T06:27:22.705Z,101592.38
2022-12-19T06:30:09.964Z,101594.03
2022-12-19T06:32:57.023Z,101595.75
2022-12-19T06:35:43.856Z,101603.53
2022-12-19T06:38:30.774Z,101613.97
2022-12-19T06:41:16.771Z,101611.31
2022-12-19T06:43:45.334Z,101613.97
2022-12-19T06:46:14.867Z,101620.06
2022-12-19T06:48:41.832Z,101620.06
2022-12-19T06:51:28.702Z,101623.53
2022-12-19T06:54:15.690Z,101629.69
2022-12-19T06:57:03.843Z,101509.09
2022-12-19T06:59:50.744Z,101627.94
2022-12-19T07:02:45.503Z,101626.22
2022-12-19T07:05:33.386Z,101613.97
2022-12-19T07:08:21.007Z,101609.59
2022-12-19T07:11:08.041Z,101641.91
2022-12-19T07:13:54.952Z,101647.16
2022-12-19T07:16:41.887Z,101657.63
2022-12-19T07:19:29.577Z,101652.41
2022-12-19T07:22:16.630Z,101655.91
2022-12-19T07:25:03.646Z,101655.91
2022-12-19T07:27:50.514Z,101659.41
2022-12-19T07:30:37.996Z,101671.63
2022-12-19T07:33:25.240Z,101663.78
2022-12-19T07:35:52.467Z,101676.00
2022-12-19T07:38:39.432Z,101678.66
2022-12-19T07:41:26.429Z,101672.59
2022-12-19T07:44:13.548Z,101677.81
2022-12-19T07:47:00.449Z,101690.00
2022-12-19T07:49:47.366Z,101658.56
2022-12-19T07:52:34.312Z,101683.09
2022-12-19T07:55:21.286Z,101677.00
2022-12-19T07:58:08.301Z,101674.38
2022-12-19T08:00:55.458Z,101681.41
2022-12-19T08:03:22.674Z,101673.56
2022-12-19T08:05:50.073Z,101672.69
2022-12-19T08:08:37.292Z,101624.63
2022-12-19T08:11:42.980Z,101676.22
2022-12-19T08:14:30.779Z,101684.94
2022-12-19T08:17:20.775Z,101697.16
2022-12-19T08:20:08.050Z,101699.78
2022-12-19T08:22:55.211Z,101701.53
2022-12-19T08:25:22.255Z,101694.59
2022-12-19T08:27:49.262Z,101701.56
2022-12-19T08:30:16.185Z,101705.03
2022-12-19T08:32:44.820Z,101717.25
2022-12-19T08:35:11.976Z,101713.78
2022-12-19T08:37:58.855Z,101720.78
2022-12-19T08:40:47.572Z,101723.41
2022-12-19T08:43:34.678Z,101711.22
2022-12-19T08:46:21.939Z,101618.56
2022-12-19T08:49:09.532Z,101694.66
2022-12-19T08:51:56.376Z,101702.53
2022-12-19T08:54:27.360Z,101711.25
2022-12-19T08:56:54.414Z,101711.28
2022-12-19T08:59:31.338Z,101708.66
2022-12-19T09:02:00.880Z,101713.03
2022-12-19T09:05:11.165Z,101713.03
2022-12-19T09:07:16.171Z,101650.94
2022-12-19T09:10:05.328Z,101708.69
2022-12-19T09:12:57.292Z,101710.44
2022-12-19T09:15:44.895Z,101718.28
2022-12-19T09:18:32.086Z,101677.28
2022-12-19T09:21:19.875Z,101699.13
2022-12-19T09:24:15.370Z,101693.91
2022-12-19T09:27:02.203Z,101675.59
2022-12-19T09:29:49.286Z,101671.25
2022-12-19T09:32:36.255Z,101666.91
2022-12-19T09:35:27.048Z,101685.22
2022-12-19T09:38:17.208Z,101645.84
2022-12-19T09:41:22.732Z,101692.16
2022-12-19T09:44:15.295Z,101699.13
2022-12-19T09:47:23.627Z,101713.09
2022-12-19T09:50:12.470Z,101705.16
2022-12-19T09:53:07.953Z,101728.78
2022-12-19T09:55:58.131Z,101720.94
2022-12-19T09:58:59.350Z,101632.69
2022-12-19T10:01:52.908Z,101717.44
2022-12-19T10:04:40.082Z,101711.38
2022-12-19T10:08:01.317Z,101720.06
2022-12-19T10:12:37.969Z,101703.47
2022-12-19T10:13:56.007Z,101720.06
2022-12-19T10:17:08.533Z,101721.81
2022-12-19T10:20:00.355Z,101718.31
2022-12-19T10:23:18.199Z,101719.19
2022-12-19T10:26:30.263Z,101734.88
2022-12-19T10:29:28.006Z,101733.13
2022-12-19T10:32:29.725Z,101733.09
2022-12-19T10:35:17.424Z,101736.59
2022-12-19T10:38:16.432Z,101746.16
2022-12-19T10:41:15.419Z,101745.31
2022-12-19T10:44:14.589Z,101744.41
2022-12-19T10:47:04.454Z,101738.28
2022-12-19T10:49:51.639Z,101727.81
2022-12-19T10:53:06.540Z,101731.31
2022-12-19T10:56:07.474Z,101726.06
2022-12-19T10:58:57.232Z,101728.69
2022-12-19T11:01:51.865Z,101724.34
2022-12-19T11:04:56.513Z,101726.94
2022-12-19T11:07:43.422Z,101726.06
2022-12-19T11:13:14.761Z,101719.06
2022-12-19T11:17:47.759Z,101723.38
2022-12-19T11:26:16.224Z,101731.22
2022-12-19T11:29:38.748Z,101741.66
2022-12-19T11:29:42.128Z,101734.56
2022-12-19T11:30:58.909Z,101745.97
2022-12-19T11:33:34.199Z,101752.91
2022-12-19T11:36:23.703Z,101746.84
2022-12-19T11:39:13.605Z,101748.53
2022-12-19T11:42:16.153Z,101756.34
2022-12-19T11:45:36.067Z,101756.28
2022-12-19T11:48:36.813Z,101750.13
2022-12-19T11:51:47.022Z,101748.31
2022-12-19T11:54:33.797Z,101758.69
2022-12-19T11:57:21.458Z,101762.94
2022-12-19T12:00:08.795Z,101738.38
2022-12-19T12:04:02.015Z,101755.06
2022-12-19T12:06:58.470Z,101761.19
2022-12-19T12:14:34.603Z,101744.63
2022-12-19T12:21:07.154Z,101745.47
2022-12-19T12:30:58.974Z,101736.78
2022-12-19T12:31:15.119Z,101734.06
2022-12-19T12:31:26.161Z,101722.78
2022-12-19T12:31:42.781Z,101751.41
2022-12-19T12:31:45.495Z,101740.88
2022-12-19T12:35:46.739Z,101738.19
2022-12-19T12:40:35.607Z,101740.84
2022-12-19T12:43:41.052Z,101745.19
2022-12-19T12:46:37.295Z,101752.16
2022-12-19T12:49:27.043Z,101694.34
2022-12-19T12:52:15.373Z,101739.06
2022-12-19T12:55:09.661Z,101738.16
2022-12-19T12:57:58.131Z,101733.75
2022-12-19T13:00:49.551Z,101730.28
2022-12-19T13:03:46.148Z,101730.25
2022-12-19T13:07:01.941Z,101731.94
2022-12-19T13:09:58.805Z,101600.69
2022-12-19T13:12:46.431Z,101732.75
2022-12-19T13:16:02.781Z,101727.47
2022-12-19T13:18:59.652Z,101727.41
2022-12-19T13:21:46.555Z,101679.03
2022-12-19T13:24:34.482Z,101734.16
2022-12-19T13:27:24.095Z,101734.91
2022-12-19T13:30:19.913Z,101737.47
2022-12-19T13:33:06.671Z,101738.31
2022-12-19T13:39:36.237Z,101736.56
2022-12-19T13:40:02.475Z,101741.69
2022-12-19T13:42:34.179Z,101617.34
2022-12-19T13:45:30.001Z,101728.53
2022-12-19T13:48:19.711Z,101692.66
2022-12-19T13:51:08.393Z,101716.25
2022-12-19T13:53:59.776Z,101602.44
2022-12-19T13:56:50.443Z,101731.84
2022-12-19T13:59:38.060Z,101726.59
2022-12-19T14:02:45.390Z,101659.13
2022-12-19T14:05:49.370Z,101729.91
2022-12-19T14:09:16.738Z,101729.84
2022-12-19T14:12:28.959Z,101724.56
2022-12-19T14:15:13.038Z,101721.88
2022-12-19T14:17:45.073Z,101727.88
2022-12-19T14:22:05.976Z,101728.69
2022-12-19T14:23:57.608Z,101743.38
2022-12-19T14:28:20.528Z,101735.47
2022-12-19T14:30:28.005Z,101741.44
2022-12-19T14:33:47.019Z,101750.06
2022-12-19T14:36:26.909Z,101754.28
2022-12-19T14:39:23.052Z,101748.16
2022-12-19T14:42:48.354Z,101722.72
2022-12-19T14:54:02.259Z,101737.47
2022-12-19T14:54:08.206Z,101752.16
2022-12-19T14:54:40.198Z,101749.44
2022-12-19T14:56:27.679Z,101741.44
2022-12-19T14:59:16.531Z,101754.44
2022-12-19T15:02:15.737Z,101699.06
2022-12-19T15:05:25.247Z,101753.41
2022-12-19T15:08:15.532Z,101754.25
2022-12-19T15:11:16.958Z,101749.84
2022-12-19T15:14:54.268Z,101742.78
2022-12-19T15:17:38.903Z,101694.53
2022-12-19T15:20:26.411Z,101754.88
2022-12-19T15:23:19.831Z,101746.13
2022-12-19T15:26:09.342Z,101746.03
2022-12-19T15:28:57.661Z,101740.78
2022-12-19T15:31:57.512Z,101738.97
2022-12-19T15:34:52.296Z,101726.59
2022-12-19T15:37:39.145Z,101735.38
2022-12-19T15:40:26.875Z,101727.34
2022-12-19T15:43:53.119Z,101677.41
2022-12-19T15:46:24.047Z,101724.69
2022-12-19T15:49:11.178Z,101727.22
2022-12-19T15:51:58.104Z,101719.34
2022-12-19T15:54:50.113Z,101725.34
2022-12-19T15:58:01.929Z,101718.28
2022-12-19T16:00:53.775Z,101719.94
2022-12-19T16:03:41.019Z,101721.63
2022-12-19T16:06:33.294Z,101646.38
2022-12-19T16:09:20.207Z,101701.53
2022-12-19T16:12:08.040Z,101697.13
2022-12-19T17:17:00.870Z,101627.47
2022-12-19T17:19:55.531Z,101637.78
2022-12-19T17:22:42.562Z,101654.81
2022-12-19T17:25:38.467Z,101656.22
2022-12-19T17:28:25.683Z,101551.78
2022-12-19T17:31:16.050Z,101575.34
2022-12-19T17:34:03.289Z,101668.13
2022-12-19T17:36:52.445Z,101668.13
2022-12-19T17:39:46.424Z,101675.94
2022-12-19T17:42:40.806Z,101656.94
2022-12-19T17:45:29.254Z,101653.47
2022-12-19T17:48:20.485Z,101659.53
2022-12-19T17:51:07.627Z,101655.97
2022-12-19T17:53:54.626Z,101663.84
2022-12-19T17:56:41.926Z,101675.09
2022-12-19T17:59:28.799Z,101640.91
2022-12-19T18:02:15.941Z,101672.50
2022-12-19T18:05:02.932Z,101663.84
2022-12-19T18:07:49.966Z,101661.25
2022-12-19T18:10:39.597Z,101659.50
2022-12-19T18:13:26.748Z,101682.81
2022-12-19T18:16:18.430Z,101668.13
2022-12-19T18:19:05.985Z,101646.50
2022-12-19T18:21:53.126Z,101600.03
2022-12-19T18:24:40.169Z,101642.16
2022-12-19T18:27:27.129Z,101639.47
2022-12-19T18:30:14.016Z,101647.31
2022-12-19T18:33:06.256Z,101642.13
2022-12-19T18:36:00.399Z,101641.25
2022-12-19T18:38:47.344Z,101639.50
2022-12-19T18:41:35.575Z,101618.38
2022-12-19T18:44:22.487Z,101644.69
2022-12-19T18:47:10.914Z,101660.19
2022-12-19T18:49:57.811Z,101657.44
2022-12-19T18:52:44.754Z,101637.53
2022-12-19T18:55:36.919Z,101643.44
2022-12-19T18:58:23.790Z,101645.97
2022-12-19T19:01:11.342Z,101641.56
2022-12-19T19:04:00.329Z,101644.13
2022-12-19T19:06:52.508Z,101622.38
2022-12-19T19:09:40.802Z,101646.72
2022-12-19T19:12:46.454Z,101638.06
2022-12-19T19:15:33.323Z,101636.28
2022-12-19T19:18:22.981Z,101636.25
2022-12-19T19:21:11.787Z,101615.31
2022-12-19T19:24:08.629Z,101629.28
2022-12-19T19:26:55.690Z,101643.91
2022-12-19T19:29:42.630Z,101637.81
2022-12-19T19:32:30.094Z,101618.25
2022-12-19T19:35:17.149Z,101646.31
2022-12-19T19:38:05.042Z,101649.75
2022-12-19T19:40:52.665Z,101636.78
2022-12-19T19:43:39.573Z,101620.03
2022-12-19T19:46:26.633Z,101630.63
2022-12-19T19:49:14.265Z,101629.69
2022-12-19T19:52:03.118Z,101522.78
2022-12-19T19:54:52.316Z,101622.69
2022-12-19T19:57:39.199Z,101609.50
2022-12-19T20:00:28.716Z,101613.97
2022-12-19T20:03:20.736Z,101614.75
2022-12-19T20:06:10.408Z,101601.59
2022-12-19T20:08:57.412Z,101590.94
2022-12-19T20:11:44.380Z,101611.81
2022-12-19T20:14:31.285Z,101546.88
2022-12-19T20:17:18.188Z,101524.22
2022-12-19T20:20:05.106Z,101603.88
2022-12-19T20:22:52.136Z,101467.28
2022-12-19T20:25:39.132Z,101598.66
2022-12-19T20:28:26.793Z,101593.47
2022-12-19T20:31:13.876Z,101591.75
2022-12-19T20:34:01.108Z,101581.34
2022-12-19T20:36:48.020Z,101562.13
2022-12-19T20:39:35.299Z,101585.66
2022-12-19T20:42:22.262Z,101586.47
2022-12-19T20:45:09.304Z,101572.69
2022-12-19T20:47:56.277Z,101578.66
2022-12-19T20:50:43.546Z,101582.16
2022-12-19T20:53:30.479Z,101573.44
2022-12-19T20:56:20.096Z,101546.34
2022-12-19T20:59:07.021Z,101569.16
2022-12-19T21:01:54.000Z,101567.47
2022-12-19T21:04:40.964Z,101559.69
2022-12-19T21:07:27.922Z,101559.69
2022-12-19T21:10:14.825Z,101548.47
2022-12-19T21:13:01.749Z,101544.19
2022-12-19T21:15:48.598Z,101520.59
2022-12-19T21:18:35.692Z,101529.50
2022-12-19T21:21:23.570Z,101534.63
2022-12-19T21:24:11.048Z,101532.16
2022-12-19T21:26:58.507Z,101517.31
2022-12-19T21:29:45.514Z,101527.84
2022-12-19T21:32:52.278Z,101520.97
2022-12-19T21:35:39.195Z,101511.47
2022-12-19T21:38:26.151Z,101458.13
2022-12-19T21:41:13.063Z,101504.63
2022-12-19T21:43:59.852Z,101497.75
2022-12-19T21:46:49.748Z,101467.19
2022-12-19T21:49:36.777Z,101483.00
2022-12-19T21:52:23.754Z,101483.97
2022-12-19T21:55:10.659Z,101483.06
2022-12-19T21:57:59.619Z,101410.59
2022-12-19T22:00:46.703Z,101472.72
2022-12-19T22:03:33.731Z,101479.69
2022-12-19T22:06:27.377Z,101478.81
2022-12-19T22:09:15.596Z,101482.34
2022-12-19T22:12:03.218Z,101484.09
2022-12-19T22:14:50.238Z,101479.81
2022-12-19T22:17:37.153Z,101474.66
2022-12-19T22:20:24.452Z,101473.00
2022-12-19T22:23:13.419Z,101466.13
2022-12-19T22:26:00.876Z,101468.75
2022-12-19T22:28:50.033Z,101455.84
2022-12-19T22:31:42.603Z,101460.19
2022-12-19T22:34:35.781Z,101466.25
2022-12-19T22:37:22.845Z,101458.53
2022-12-19T22:40:09.725Z,101457.75
2022-12-19T22:42:56.708Z,101449.13
2022-12-19T22:45:43.652Z,101444.69
2022-12-19T22:48:30.614Z,101373.00
2022-12-19T22:51:17.458Z,101452.75
2022-12-19T22:54:05.475Z,101447.63
2022-12-19T22:56:53.995Z,101442.53
2022-12-19T22:59:40.865Z,101430.53
2022-12-19T23:02:28.104Z,101428.00
2022-12-19T23:05:15.086Z,101426.34
2022-12-19T23:08:01.987Z,101416.88
2022-12-19T23:10:48.941Z,101401.47
2022-12-19T23:13:35.768Z,101411.03
2022-12-19T23:16:22.849Z,101223.13
2022-12-19T23:19:09.756Z,101414.69
2022-12-19T23:21:57.438Z,101415.69
2022-12-19T23:24:44.367Z,101395.91
2022-12-19T23:27:31.323Z,101389.03
2022-12-19T23:30:18.319Z,101378.75
2022-12-19T23:33:05.314Z,101381.44
2022-12-19T23:35:52.826Z,101302.97
2022-12-19T23:38:40.114Z,101373.81
2022-12-19T23:41:35.010Z,101369.56
2022-12-19T23:44:22.077Z,101356.69
2022-12-19T23:47:09.202Z,101269.38
2022-12-19T23:49:56.178Z,101351.66
2022-12-19T23:52:43.125Z,101350.03
2022-12-19T23:55:11.099Z,101342.31
2022-12-19T23:57:38.126Z,101329.41
